createdAt,value
2018-10-03T00:02:54.045Z,21.55
2018-10-03T00:07:57.455Z,21.53
2018-10-03T00:13:00.857Z,21.51
2018-10-03T00:18:04.278Z,21.49
2018-10-03T00:23:07.685Z,21.44
2018-10-03T00:28:11.080Z,21.42
2018-10-03T00:33:14.484Z,21.36
2018-10-03T00:38:17.888Z,21.29
2018-10-03T00:43:21.291Z,21.25
2018-10-03T00:48:24.713Z,21.19
2018-10-03T00:53:28.130Z,21.15
2018-10-03T00:58:31.558Z,21.08
2018-10-03T01:03:34.964Z,21.06
2018-10-03T01:08:38.372Z,20.98
2018-10-03T01:13:41.788Z,20.95
2018-10-03T01:18:46.008Z,20.92
2018-10-03T01:23:49.429Z,20.91
2018-10-03T01:28:52.833Z,20.89
2018-10-03T01:33:56.241Z,20.87
2018-10-03T01:38:59.652Z,20.86
2018-10-03T01:44:03.064Z,20.83
2018-10-03T01:49:06.534Z,20.81
2018-10-03T01:54:09.932Z,20.79
2018-10-03T01:59:13.336Z,20.76
2018-10-03T02:04:16.737Z,20.73
2018-10-03T02:09:20.152Z,20.71
2018-10-03T02:14:23.576Z,20.69
2018-10-03T02:19:26.989Z,20.68
2018-10-03T02:24:30.401Z,20.65
2018-10-03T02:29:33.813Z,20.63
2018-10-03T02:34:37.263Z,20.62
2018-10-03T02:39:40.632Z,20.61
2018-10-03T02:44:44.032Z,20.60
2018-10-03T02:49:47.506Z,20.59
2018-10-03T02:54:50.867Z,20.57
2018-10-03T02:59:54.273Z,20.56
2018-10-03T03:04:57.683Z,20.54
2018-10-03T03:10:01.108Z,20.52
2018-10-03T03:15:04.636Z,20.52
2018-10-03T03:20:08.067Z,20.50
2018-10-03T03:25:11.493Z,20.48
2018-10-03T03:30:14.896Z,20.49
2018-10-03T03:35:18.300Z,20.46
2018-10-03T03:40:21.768Z,20.46
2018-10-03T03:45:25.206Z,20.43
2018-10-03T03:50:29.367Z,20.43
2018-10-03T03:55:32.821Z,20.41
2018-10-03T04:00:36.270Z,20.38
2018-10-03T04:05:39.789Z,20.36
2018-10-03T04:10:43.281Z,20.35
2018-10-03T04:15:46.718Z,20.25
2018-10-03T04:20:50.156Z,20.34
2018-10-03T04:25:53.596Z,20.32
2018-10-03T04:30:57.037Z,20.31
2018-10-03T04:36:00.476Z,20.29
2018-10-03T04:41:03.953Z,20.29
2018-10-03T04:46:07.399Z,20.28
2018-10-03T04:51:10.858Z,20.26
2018-10-03T04:56:14.420Z,20.26
2018-10-03T05:01:17.861Z,20.24
2018-10-03T05:06:21.292Z,20.23
2018-10-03T05:11:24.801Z,20.22
2018-10-03T05:16:28.185Z,20.21
2018-10-03T05:21:31.624Z,20.20
2018-10-03T05:26:35.069Z,20.19
2018-10-03T05:31:38.545Z,20.19
2018-10-03T05:36:41.981Z,20.18
2018-10-03T05:41:45.417Z,20.16
2018-10-03T05:46:48.860Z,20.16
2018-10-03T05:51:52.337Z,20.16
2018-10-03T05:56:55.776Z,20.16
2018-10-03T06:01:59.261Z,20.13
2018-10-03T06:07:02.717Z,20.14
2018-10-03T06:12:06.171Z,20.14
2018-10-03T06:17:09.626Z,20.14
2018-10-03T06:22:13.304Z,20.13
2018-10-03T06:27:16.742Z,20.13
2018-10-03T06:32:20.192Z,20.13
2018-10-03T06:37:23.676Z,20.13
2018-10-03T06:42:27.158Z,20.14
2018-10-03T06:47:30.575Z,20.12
2018-10-03T06:52:33.992Z,20.13
2018-10-03T06:57:37.409Z,20.12
2018-10-03T07:02:40.881Z,20.14
2018-10-03T07:07:44.477Z,17.96
2018-10-03T07:12:47.943Z,18.35
2018-10-03T07:17:51.410Z,19.28
2018-10-03T07:22:55.018Z,19.60
2018-10-03T07:27:58.529Z,19.84
2018-10-03T07:33:01.979Z,19.91
2018-10-03T07:38:05.441Z,19.89
2018-10-03T07:43:08.923Z,19.93
2018-10-03T07:48:12.378Z,19.97
2018-10-03T07:53:15.913Z,20.02
2018-10-03T07:58:19.258Z,20.09
2018-10-03T08:03:22.681Z,20.10
2018-10-03T08:08:26.164Z,20.12
2018-10-03T08:13:29.597Z,20.17
2018-10-03T08:18:33.103Z,20.16
2018-10-03T08:23:36.900Z,20.21
2018-10-03T08:28:40.438Z,20.22
2018-10-03T08:33:43.894Z,20.25
2018-10-03T08:38:47.440Z,20.25
2018-10-03T08:43:50.838Z,20.27
2018-10-03T08:48:54.305Z,20.24
2018-10-03T08:53:58.254Z,20.24
2018-10-03T08:59:01.716Z,20.23
2018-10-03T09:04:05.164Z,20.22
2018-10-03T09:09:09.768Z,20.21
2018-10-03T09:14:13.212Z,20.23
2018-10-03T09:19:16.617Z,20.22
2018-10-03T09:24:20.050Z,20.26
2018-10-03T09:29:23.525Z,20.28
2018-10-03T09:34:26.961Z,20.30
2018-10-03T09:39:30.405Z,20.32
2018-10-03T09:44:33.865Z,20.32
2018-10-03T09:49:37.325Z,20.34
2018-10-03T09:54:40.749Z,20.32
2018-10-03T09:59:44.213Z,20.34
2018-10-03T10:04:47.622Z,20.34
2018-10-03T10:09:51.046Z,20.37
2018-10-03T10:14:54.457Z,20.41
2018-10-03T10:19:57.875Z,20.49
2018-10-03T10:25:01.441Z,20.52
2018-10-03T10:30:05.970Z,20.53
2018-10-03T10:35:09.434Z,20.49
2018-10-03T10:40:12.916Z,20.58
2018-10-03T10:45:16.328Z,20.82
2018-10-03T10:50:19.832Z,20.66
2018-10-03T10:55:23.319Z,20.61
2018-10-03T11:00:26.803Z,20.60
2018-10-03T11:05:30.226Z,20.56
2018-10-03T11:10:33.645Z,20.53
2018-10-03T11:15:37.112Z,20.49
2018-10-03T11:20:40.545Z,20.49
2018-10-03T11:25:43.961Z,20.44
2018-10-03T11:30:47.398Z,20.43
2018-10-03T11:35:50.829Z,20.45
2018-10-03T11:40:54.261Z,20.46
2018-10-03T11:45:57.691Z,20.46
2018-10-03T11:51:01.134Z,20.49
2018-10-03T11:56:04.637Z,20.51
2018-10-03T12:01:08.064Z,20.49
2018-10-03T12:06:11.506Z,20.50
2018-10-03T12:11:14.960Z,20.61
2018-10-03T12:16:18.423Z,20.68
2018-10-03T12:21:21.832Z,20.69
2018-10-03T12:26:25.287Z,20.71
2018-10-03T12:31:28.727Z,20.73
2018-10-03T12:36:32.169Z,20.75
2018-10-03T12:41:35.582Z,20.79
2018-10-03T12:46:39.263Z,20.83
2018-10-03T12:51:42.706Z,20.82
2018-10-03T12:56:46.150Z,20.81
2018-10-03T13:01:49.601Z,20.79
2018-10-03T13:06:53.096Z,20.87
2018-10-03T13:11:56.510Z,21.00
2018-10-03T13:16:59.976Z,21.04
2018-10-03T13:22:03.713Z,21.12
2018-10-03T13:27:07.180Z,21.11
2018-10-03T13:32:10.631Z,21.15
2018-10-03T13:37:14.079Z,21.09
2018-10-03T13:42:17.557Z,21.09
2018-10-03T13:47:20.999Z,20.99
2018-10-03T13:52:24.414Z,21.05
2018-10-03T13:57:27.837Z,21.04
2018-10-03T14:02:31.282Z,21.01
2018-10-03T14:07:34.705Z,20.98
2018-10-03T14:12:38.154Z,20.99
2018-10-03T14:17:41.590Z,21.01
2018-10-03T14:22:45.039Z,21.00
2018-10-03T14:27:48.502Z,20.98
2018-10-03T14:32:51.985Z,21.00
2018-10-03T14:37:55.395Z,20.97
2018-10-03T14:42:58.861Z,20.96
2018-10-03T14:48:02.382Z,21.03
2018-10-03T14:53:05.812Z,20.97
2018-10-03T14:58:09.303Z,20.93
2018-10-03T15:03:12.707Z,20.91
2018-10-03T15:08:16.165Z,20.88
2018-10-03T15:13:19.597Z,20.87
2018-10-03T15:18:23.115Z,20.89
2018-10-03T15:23:26.543Z,20.85
2018-10-03T15:28:29.962Z,20.81
2018-10-03T15:33:33.406Z,20.79
2018-10-03T15:38:36.877Z,20.75
2018-10-03T15:43:40.338Z,20.80
2018-10-03T15:48:45.324Z,20.84
2018-10-03T15:53:48.853Z,20.93
2018-10-03T15:58:52.269Z,20.92
2018-10-03T16:03:55.741Z,20.90
2018-10-03T16:08:59.184Z,20.89
2018-10-03T16:14:02.626Z,20.90
2018-10-03T16:19:06.077Z,20.89
2018-10-03T16:24:09.529Z,20.85
2018-10-03T16:29:12.955Z,20.85
2018-10-03T16:34:16.409Z,20.86
2018-10-03T16:39:20.045Z,20.81
2018-10-03T16:44:23.483Z,20.89
2018-10-03T16:49:27.718Z,20.83
2018-10-03T16:54:31.133Z,20.85
2018-10-03T16:59:34.573Z,20.84
2018-10-03T17:04:37.989Z,20.84
2018-10-03T17:09:41.605Z,20.85
2018-10-03T17:14:45.713Z,20.89
2018-10-03T17:19:49.823Z,20.80
2018-10-03T17:24:54.950Z,20.82
2018-10-03T17:29:59.240Z,20.78
2018-10-03T17:35:03.597Z,20.77
2018-10-03T17:40:08.189Z,20.77
2018-10-03T17:45:12.468Z,20.76
2018-10-03T17:50:16.854Z,20.76
2018-10-03T17:55:21.529Z,20.75
2018-10-03T18:00:25.875Z,20.73
2018-10-03T18:05:30.122Z,20.72
2018-10-03T18:10:34.494Z,20.74
2018-10-03T18:15:38.815Z,20.73
2018-10-03T18:26:08.890Z,20.71
2018-10-03T18:31:12.344Z,20.73
2018-10-03T18:36:15.839Z,20.72
2018-10-03T18:41:19.509Z,20.76
2018-10-03T18:46:24.273Z,20.77
2018-10-03T18:51:27.891Z,20.73
2018-10-03T18:56:32.254Z,20.72
2018-10-03T19:01:36.387Z,20.72
2018-10-03T19:06:41.154Z,20.77
2018-10-03T19:11:45.367Z,20.80
2018-10-03T19:16:49.274Z,20.91
2018-10-03T19:21:53.602Z,20.93
2018-10-03T19:26:57.517Z,20.96
2018-10-03T19:32:02.511Z,20.99
2018-10-03T19:37:06.103Z,21.03
2018-10-03T19:42:10.492Z,21.07
2018-10-03T19:47:14.442Z,21.11
2018-10-03T19:52:18.761Z,21.15
2018-10-03T19:57:22.453Z,21.19
2018-10-03T20:02:26.772Z,21.16
2018-10-03T20:07:30.797Z,21.23
2018-10-03T20:12:34.508Z,21.27
2018-10-03T20:17:38.934Z,21.29
2018-10-03T20:22:43.121Z,21.32
2018-10-03T20:27:46.573Z,21.33
2018-10-03T20:32:50.018Z,21.34
2018-10-03T20:37:53.815Z,21.37
2018-10-03T20:42:57.817Z,21.39
2018-10-03T20:48:01.379Z,21.42
2018-10-03T20:53:04.826Z,21.46
2018-10-03T20:58:08.481Z,21.48
2018-10-03T21:03:12.155Z,21.48
2018-10-03T21:08:15.678Z,21.51
2018-10-03T21:13:19.218Z,21.54
2018-10-03T21:18:22.690Z,21.52
2018-10-03T21:23:26.189Z,21.56
2018-10-03T21:28:29.741Z,21.56
2018-10-03T21:33:33.217Z,21.59
2018-10-03T21:38:36.750Z,21.60
2018-10-03T21:43:40.225Z,21.62
2018-10-03T21:48:43.717Z,21.61
2018-10-03T21:53:47.162Z,21.61
2018-10-03T21:58:50.683Z,21.62
2018-10-03T22:03:54.164Z,21.64
2018-10-03T22:08:57.607Z,21.65
2018-10-03T22:14:01.133Z,21.65
2018-10-03T22:19:04.593Z,21.67
2018-10-03T22:24:08.040Z,21.70
2018-10-03T22:29:11.480Z,21.70
2018-10-03T22:34:14.941Z,21.72
2018-10-03T22:39:18.383Z,21.73
2018-10-03T22:44:21.859Z,21.72
2018-10-03T22:49:25.324Z,21.73
2018-10-03T22:54:28.762Z,21.73
2018-10-03T22:59:32.206Z,21.75
2018-10-03T23:04:35.649Z,21.73
2018-10-03T23:09:39.141Z,21.74
2018-10-03T23:14:42.581Z,21.75
2018-10-03T23:19:46.054Z,21.75
2018-10-03T23:24:49.502Z,21.76
2018-10-03T23:29:52.941Z,21.78
2018-10-03T23:34:56.386Z,21.77
2018-10-03T23:39:59.824Z,21.72
2018-10-03T23:45:03.413Z,21.77
2018-10-03T23:50:06.867Z,21.79
2018-10-03T23:55:10.300Z,21.73
